Time;durP1;ratioP1;P1;durP2;ratioP2;P2;SDS_P1;SDS_P2;PMS_P1;PMS_P2;Temp;Humidity;BMP_temperature;BMP_pressure;BME280_temperature;BME280_humidity;BME280_pressure;Samples;Min_cycle;Max_cycle;Signal;HPM_P1;HPM_P2
2023/09/08 00:01:39;;;;;;;4.53;3.15;;;22.60;99.90;;;;;;1896159;76;21179;-76
2023/09/08 00:04:32;;;;;;;5.35;3.30;;;22.50;99.90;;;;;;1896255;76;21142;-76
2023/09/08 00:07:24;;;;;;;3.42;3.10;;;22.50;99.90;;;;;;1896316;76;21126;-76
2023/09/08 00:10:15;;;;;;;4.20;3.45;;;22.60;99.90;;;;;;1896023;76;21125;-76
2023/09/08 00:13:07;;;;;;;4.30;3.42;;;22.60;99.90;;;;;;1908531;75;21075;-76
2023/09/08 00:15:58;;;;;;;3.15;2.95;;;22.60;99.90;;;;;;1911933;75;21570;-76
2023/09/08 00:18:50;;;;;;;4.30;3.87;;;22.60;99.90;;;;;;1911649;75;21199;-77
2023/09/08 00:21:43;;;;;;;5.35;3.45;;;22.60;99.90;;;;;;1911397;75;21213;-76
2023/09/08 00:24:34;;;;;;;3.85;3.35;;;22.60;99.90;;;;;;1911278;75;21162;-77
2023/09/08 00:27:25;;;;;;;4.75;3.67;;;22.60;99.90;;;;;;1911124;75;21677;-76
2023/09/08 00:30:17;;;;;;;4.55;4.10;;;22.40;99.90;;;;;;1911754;75;21070;-76
2023/09/08 00:33:08;;;;;;;8.28;3.98;;;22.40;99.90;;;;;;1911710;75;21573;-77
2023/09/08 00:36:00;;;;;;;4.17;3.77;;;22.30;99.90;;;;;;1923005;74;21140;-76
2023/09/08 00:38:52;;;;;;;5.03;3.62;;;22.40;99.90;;;;;;1925786;74;21642;-76
2023/09/08 00:41:44;;;;;;;5.55;3.80;;;22.30;99.90;;;;;;1925756;74;21111;-77
2023/09/08 00:44:36;;;;;;;4.25;3.85;;;22.20;99.90;;;;;;1926292;74;21111;-76
2023/09/08 00:47:27;;;;;;;5.67;3.90;;;22.20;99.90;;;;;;1926563;74;21067;-76
2023/09/08 00:50:19;;;;;;;4.67;3.67;;;22.20;99.90;;;;;;1926424;74;21154;-76
2023/09/08 00:53:11;;;;;;;5.35;3.62;;;22.20;99.90;;;;;;1926469;74;21114;-76
2023/09/08 00:56:03;;;;;;;5.05;4.05;;;22.10;99.90;;;;;;1926406;74;21103;-76
2023/09/08 00:58:54;;;;;;;5.03;3.72;;;22.10;99.90;;;;;;1926555;74;21098;-76
2023/09/08 01:01:46;;;;;;;4.72;3.98;;;22.20;99.90;;;;;;1926531;74;21126;-76
2023/09/08 01:04:40;;;;;;;5.03;3.90;;;22.20;99.90;;;;;;1926376;74;21103;-77
2023/09/08 01:07:32;;;;;;;6.20;3.80;;;22.20;99.90;;;;;;1926552;74;21135;-76
2023/09/08 01:10:25;;;;;;;14.90;3.92;;;22.10;99.90;;;;;;1926410;74;21097;-76
2023/09/08 01:13:17;;;;;;;3.85;3.42;;;22.10;99.90;;;;;;1911411;74;21143;-85
2023/09/08 01:16:08;;;;;;;4.85;3.77;;;22.10;99.90;;;;;;1892495;76;21193;-84
2023/09/08 01:19:01;;;;;;;4.25;3.77;;;22.00;99.90;;;;;;1892845;76;21165;-85
2023/09/08 01:22:23;;;;;;;4.75;3.40;;;22.00;99.90;;;;;;1893058;76;21141;-85
2023/09/08 01:25:35;;;;;;;4.33;3.90;;;22.00;99.90;;;;;;1893116;76;21607;-85
2023/09/08 01:28:27;;;;;;;3.98;3.42;;;22.00;99.90;;;;;;1892922;76;21105;-85
2023/09/08 01:31:20;;;;;;;5.70;4.20;;;22.00;99.90;;;;;;1892983;76;21670;-85
2023/09/08 01:34:13;;;;;;;5.15;3.98;;;22.00;99.90;;;;;;1892761;76;21163;-85
2023/09/08 01:37:04;;;;;;;6.15;3.77;;;22.00;99.90;;;;;;1893029;76;21116;-85
2023/09/08 01:39:56;;;;;;;4.85;3.90;;;22.10;99.90;;;;;;1892962;76;21140;-84
2023/09/08 01:42:48;;;;;;;4.35;3.92;;;22.10;99.90;;;;;;1892998;76;21346;-85
2023/09/08 01:45:40;;;;;;;4.83;3.90;;;22.00;99.90;;;;;;1892904;76;21579;-85
2023/09/08 01:48:32;;;;;;;4.22;3.62;;;22.00;99.90;;;;;;1892828;76;21087;-86
2023/09/08 01:51:24;;;;;;;4.15;3.75;;;22.00;99.90;;;;;;1892818;76;21144;-84
2023/09/08 01:54:15;;;;;;;5.65;3.90;;;22.00;99.90;;;;;;1892891;76;21095;-85
2023/09/08 01:57:07;;;;;;;4.65;3.90;;;22.00;99.90;;;;;;1892853;76;21116;-85
2023/09/08 01:59:58;;;;;;;6.47;3.98;;;22.00;99.90;;;;;;1892905;76;21153;-85
2023/09/08 02:02:50;;;;;;;3.92;3.52;;;21.90;99.90;;;;;;1892940;76;21110;-85
2023/09/08 02:05:42;;;;;;;5.22;3.70;;;21.90;99.90;;;;;;1893056;76;21060;-85
2023/09/08 02:08:33;;;;;;;7.00;4.10;;;21.90;99.90;;;;;;1893062;76;21182;-85
2023/09/08 02:11:25;;;;;;;6.58;4.10;;;21.90;99.90;;;;;;1892950;76;21185;-85
2023/09/08 02:14:16;;;;;;;6.90;4.08;;;21.90;99.90;;;;;;1893037;74;21088;-85
2023/09/08 02:17:10;;;;;;;4.30;3.95;;;21.80;99.90;;;;;;1892955;76;21111;-84
2023/09/08 02:20:01;;;;;;;6.30;3.90;;;21.80;99.90;;;;;;1892798;76;21198;-84
2023/09/08 02:22:55;;;;;;;4.17;3.77;;;21.90;99.90;;;;;;1892947;76;21334;-84
2023/09/08 02:25:47;;;;;;;4.97;3.98;;;21.80;99.90;;;;;;1892643;76;21115;-84
2023/09/08 02:28:38;;;;;;;4.22;3.77;;;21.80;99.90;;;;;;1892754;76;21128;-84
2023/09/08 02:31:30;;;;;;;4.70;4.30;;;21.90;99.90;;;;;;1892985;76;21107;-84
2023/09/08 02:34:22;;;;;;;4.70;3.87;;;21.80;99.90;;;;;;1892618;76;21108;-84
2023/09/08 02:37:14;;;;;;;4.97;3.70;;;21.70;99.90;;;;;;1893048;76;21115;-84
2023/09/08 02:40:08;;;;;;;5.05;3.80;;;21.60;99.90;;;;;;1892589;76;21129;-84
2023/09/08 02:43:00;;;;;;;4.83;4.08;;;21.50;99.90;;;;;;1892961;76;21198;-84
2023/09/08 02:45:51;;;;;;;5.60;4.30;;;21.50;99.90;;;;;;1893064;76;21064;-84
2023/09/08 02:48:43;;;;;;;5.28;4.28;;;21.50;99.90;;;;;;1893012;76;21190;-85
2023/09/08 02:51:35;;;;;;;5.20;4.20;;;21.60;99.90;;;;;;1893222;76;21146;-85
2023/09/08 02:54:27;;;;;;;5.83;3.90;;;21.60;99.90;;;;;;1892804;76;21068;-84
2023/09/08 02:57:20;;;;;;;4.15;3.75;;;21.60;99.90;;;;;;1893100;76;21160;-84
2023/09/08 03:00:14;;;;;;;4.62;4.22;;;21.60;99.90;;;;;;1892891;76;21144;-85
2023/09/08 03:03:06;;;;;;;5.80;3.90;;;21.60;99.90;;;;;;1892969;76;21119;-85
2023/09/08 03:06:03;;;;;;;4.58;4.17;;;21.60;99.90;;;;;;1901637;74;21082;-85
2023/09/08 03:08:54;;;;;;;4.65;4.17;;;21.60;99.90;;;;;;1926144;74;21168;-84
2023/09/08 03:11:46;;;;;;;4.20;3.90;;;21.60;99.90;;;;;;1926188;74;21215;-84
2023/09/08 03:14:37;;;;;;;4.50;4.00;;;21.60;99.90;;;;;;1927114;74;21422;-85
2023/09/08 03:17:29;;;;;;;5.35;4.30;;;21.60;99.90;;;;;;1932469;74;21094;-84
2023/09/08 03:20:21;;;;;;;4.90;3.95;;;21.70;99.90;;;;;;1932294;74;21181;-85
2023/09/08 03:23:13;;;;;;;4.78;4.30;;;21.70;99.90;;;;;;1932356;74;21055;-85
2023/09/08 03:26:04;;;;;;;4.67;4.17;;;21.60;99.90;;;;;;1932403;74;21210;-84
2023/09/08 03:28:56;;;;;;;4.62;3.90;;;21.50;99.90;;;;;;1932478;74;21558;-84
2023/09/08 03:31:47;;;;;;;5.05;4.05;;;21.50;99.90;;;;;;1932648;74;21111;-84
2023/09/08 03:34:39;;;;;;;5.85;4.17;;;21.50;99.90;;;;;;1932605;74;21101;-84
2023/09/08 03:37:31;;;;;;;5.47;4.22;;;21.60;99.90;;;;;;1932095;74;21091;-84
2023/09/08 03:40:22;;;;;;;5.42;4.70;;;21.50;99.90;;;;;;1932396;74;21054;-85
2023/09/08 03:43:14;;;;;;;5.30;4.42;;;21.40;99.90;;;;;;1932699;74;21525;-85
2023/09/08 03:46:05;;;;;;;4.40;4.00;;;21.30;99.90;;;;;;1932466;74;21134;-85
2023/09/08 03:49:00;;;;;;;5.67;4.30;;;21.30;99.90;;;;;;1931835;74;21058;-85
2023/09/08 03:51:50;;;;;;;4.90;4.12;;;21.30;99.90;;;;;;1932402;74;21108;-85
2023/09/08 03:54:42;;;;;;;4.45;4.05;;;21.20;99.90;;;;;;1932787;74;21044;-84
2023/09/08 03:57:33;;;;;;;4.45;4.10;;;21.20;99.90;;;;;;1932702;74;21098;-85
2023/09/08 04:00:24;;;;;;;4.62;4.22;;;21.10;99.90;;;;;;1932817;74;21110;-85
2023/09/08 04:03:16;;;;;;;4.60;4.20;;;21.10;99.90;;;;;;1932622;74;21085;-84
2023/09/08 04:06:09;;;;;;;5.28;4.58;;;21.10;99.90;;;;;;1932404;74;21077;-84
2023/09/08 04:09:00;;;;;;;6.28;4.03;;;21.10;99.90;;;;;;1932582;74;21118;-84
2023/09/08 04:11:52;;;;;;;4.10;3.60;;;21.10;99.90;;;;;;1932437;74;21098;-84
2023/09/08 04:14:43;;;;;;;4.70;4.30;;;21.10;99.90;;;;;;1932792;74;21110;-84
2023/09/08 04:17:35;;;;;;;4.78;4.35;;;21.00;99.90;;;;;;1932761;74;21114;-84
2023/09/08 04:20:27;;;;;;;5.28;4.25;;;21.00;99.90;;;;;;1932598;74;21148;-84
2023/09/08 04:23:20;;;;;;;5.72;4.10;;;21.00;99.90;;;;;;1932531;74;21058;-84
2023/09/08 04:26:11;;;;;;;6.25;4.35;;;20.90;99.90;;;;;;1932749;74;21062;-84
2023/09/08 04:29:03;;;;;;;5.00;4.33;;;20.80;99.90;;;;;;1932687;74;21451;-84
2023/09/08 04:31:54;;;;;;;4.65;4.25;;;20.80;99.90;;;;;;1932679;74;21675;-84
2023/09/08 04:34:45;;;;;;;5.65;4.40;;;20.80;99.90;;;;;;1932609;74;21206;-84
2023/09/08 04:37:37;;;;;;;7.12;5.70;;;20.70;99.90;;;;;;1932689;74;21106;-84
2023/09/08 04:40:28;;;;;;;6.62;4.50;;;20.60;99.90;;;;;;1932530;74;21160;-84
2023/09/08 04:43:19;;;;;;;4.87;4.37;;;20.60;99.90;;;;;;1932450;74;21101;-84
2023/09/08 04:46:11;;;;;;;5.78;4.42;;;20.60;99.90;;;;;;1932958;74;21627;-84
2023/09/08 04:49:03;;;;;;;5.12;4.62;;;20.60;99.90;;;;;;1932214;74;21158;-84
2023/09/08 04:51:56;;;;;;;5.22;4.58;;;20.70;99.90;;;;;;1932423;74;21156;-84
2023/09/08 04:54:48;;;;;;;5.72;4.45;;;20.70;99.90;;;;;;1932688;74;21117;-84
2023/09/08 04:57:39;;;;;;;6.12;4.45;;;20.70;99.90;;;;;;1932533;74;21113;-85
2023/09/08 05:00:33;;;;;;;9.33;5.17;;;20.70;99.90;;;;;;1932592;74;21054;-84
2023/09/08 05:03:26;;;;;;;4.87;4.30;;;20.70;99.90;;;;;;1932456;74;21106;-85
2023/09/08 05:06:18;;;;;;;5.40;4.50;;;20.70;99.90;;;;;;1932723;74;21196;-84
2023/09/08 05:09:09;;;;;;;8.78;4.55;;;20.70;99.90;;;;;;1932705;74;21152;-84
2023/09/08 05:12:01;;;;;;;6.85;5.03;;;20.70;99.90;;;;;;1932471;74;21158;-85
2023/09/08 05:14:56;;;;;;;6.62;4.53;;;20.70;99.90;;;;;;1932510;74;21122;-84
2023/09/08 05:17:46;;;;;;;10.48;6.30;;;20.70;99.90;;;;;;1932346;74;21151;-84
2023/09/08 05:20:39;;;;;;;8.35;4.55;;;20.70;99.90;;;;;;1932752;74;21101;-84
2023/09/08 05:23:31;;;;;;;8.23;4.70;;;20.60;99.90;;;;;;1932533;74;21200;-84
2023/09/08 05:26:22;;;;;;;5.20;4.58;;;20.50;99.90;;;;;;1932456;74;21645;-84
2023/09/08 05:29:14;;;;;;;6.53;4.90;;;20.40;99.90;;;;;;1932640;74;22127;-85
2023/09/08 05:32:06;;;;;;;5.42;4.55;;;20.40;99.90;;;;;;1932548;74;21160;-84
2023/09/08 05:34:57;;;;;;;5.60;4.60;;;20.40;99.90;;;;;;1932126;74;21091;-85
2023/09/08 05:37:49;;;;;;;5.75;4.60;;;20.40;99.90;;;;;;1932176;74;21168;-84
2023/09/08 05:40:40;;;;;;;6.30;4.97;;;20.40;99.90;;;;;;1932372;74;21086;-84
2023/09/08 05:43:32;;;;;;;6.08;4.80;;;20.50;99.90;;;;;;1932365;74;21588;-84
2023/09/08 05:46:24;;;;;;;5.50;4.80;;;20.50;99.90;;;;;;1932456;74;21208;-83
2023/09/08 05:49:17;;;;;;;5.78;5.03;;;20.60;99.90;;;;;;1932305;74;21126;-84
2023/09/08 05:52:09;;;;;;;9.50;5.12;;;20.60;99.90;;;;;;1932366;74;21125;-83
2023/09/08 05:55:01;;;;;;;10.90;4.67;;;20.70;99.90;;;;;;1932481;74;21150;-85
2023/09/08 05:57:54;;;;;;;5.75;4.87;;;20.70;99.90;;;;;;1932487;74;21105;-84
2023/09/08 06:00:45;;;;;;;8.53;5.42;;;20.80;99.90;;;;;;1932537;74;21098;-84
2023/09/08 06:03:37;;;;;;;6.60;4.95;;;20.80;99.90;;;;;;1932345;74;21097;-84
2023/09/08 06:06:29;;;;;;;7.03;5.65;;;20.80;99.90;;;;;;1932473;74;21193;-84
2023/09/08 06:09:21;;;;;;;6.17;5.03;;;20.80;99.90;;;;;;1932322;74;21110;-84
2023/09/08 06:12:13;;;;;;;9.20;5.47;;;20.80;99.90;;;;;;1932435;74;21122;-84
2023/09/08 06:15:06;;;;;;;5.17;4.67;;;20.90;99.90;;;;;;1932265;74;21155;-84
2023/09/08 06:17:58;;;;;;;5.70;5.10;;;20.90;99.90;;;;;;1932526;74;21631;-84
2023/09/08 06:20:50;;;;;;;7.75;4.78;;;20.90;99.90;;;;;;1932681;74;21161;-84
2023/09/08 06:23:41;;;;;;;6.35;4.67;;;20.90;99.90;;;;;;1932633;74;21103;-84
2023/09/08 06:26:33;;;;;;;5.70;4.80;;;20.90;99.90;;;;;;1932387;74;21091;-84
2023/09/08 06:29:25;;;;;;;6.42;4.90;;;21.00;99.90;;;;;;1932479;74;21094;-84
2023/09/08 06:32:17;;;;;;;7.25;4.90;;;21.00;99.90;;;;;;1932575;74;21056;-84
2023/09/08 06:35:10;;;;;;;7.47;5.00;;;21.10;99.90;;;;;;1932415;74;21169;-84
2023/09/08 06:38:02;;;;;;;7.00;4.80;;;21.20;99.90;;;;;;1932699;74;21064;-84
2023/09/08 06:40:53;;;;;;;6.72;5.15;;;21.20;99.90;;;;;;1932251;74;21124;-85
2023/09/08 06:43:45;;;;;;;7.62;5.33;;;21.30;99.90;;;;;;1932450;74;21106;-84
2023/09/08 06:46:38;;;;;;;6.22;4.60;;;21.40;99.90;;;;;;1932626;74;21086;-84
2023/09/08 06:49:31;;;;;;;6.08;5.33;;;21.40;99.90;;;;;;1932053;74;21098;-85
2023/09/08 06:52:23;;;;;;;6.45;5.03;;;21.50;99.90;;;;;;1932244;74;21424;-84
2023/09/08 06:55:16;;;;;;;7.28;5.20;;;21.50;99.90;;;;;;1932278;74;21155;-84
2023/09/08 06:58:08;;;;;;;8.18;5.47;;;21.60;99.90;;;;;;1932020;74;21545;-84
2023/09/08 07:00:59;;;;;;;6.65;5.83;;;21.70;99.90;;;;;;1932252;74;21180;-85
2023/09/08 07:03:51;;;;;;;8.78;5.40;;;21.70;99.90;;;;;;1932186;74;21142;-84
2023/09/08 07:06:44;;;;;;;6.78;4.90;;;21.70;99.90;;;;;;1932342;74;21161;-84
2023/09/08 07:09:36;;;;;;;9.93;6.12;;;21.70;99.90;;;;;;1932332;74;21118;-85
2023/09/08 07:12:30;;;;;;;6.67;5.70;;;21.80;99.90;;;;;;1932217;74;21184;-84
2023/09/08 07:15:22;;;;;;;9.28;5.85;;;21.80;99.90;;;;;;1931516;74;21213;-85
2023/09/08 07:18:13;;;;;;;8.28;5.80;;;21.80;99.90;;;;;;1931931;74;21209;-84
2023/09/08 07:21:06;;;;;;;10.90;5.75;;;22.00;99.90;;;;;;1932517;74;21110;-85
2023/09/08 07:23:58;;;;;;;8.70;6.03;;;22.00;99.90;;;;;;1932256;74;21068;-84
2023/09/08 07:26:50;;;;;;;9.65;6.95;;;22.10;99.90;;;;;;1932271;74;21144;-84
2023/09/08 07:29:42;;;;;;;9.20;5.95;;;22.30;99.90;;;;;;1932328;74;21104;-84
2023/09/08 07:32:34;;;;;;;9.78;7.03;;;22.30;99.90;;;;;;1932419;74;21201;-84
2023/09/08 07:35:25;;;;;;;6.90;5.50;;;22.30;99.90;;;;;;1932245;74;21174;-84
2023/09/08 07:38:17;;;;;;;9.35;5.95;;;22.40;99.90;;;;;;1932188;74;21482;-84
2023/09/08 07:41:08;;;;;;;8.55;6.30;;;22.50;99.90;;;;;;1931940;74;21349;-84
2023/09/08 07:44:00;;;;;;;7.53;5.85;;;22.50;99.90;;;;;;1932062;74;21118;-84
2023/09/08 07:46:52;;;;;;;7.35;6.20;;;22.60;99.90;;;;;;1932283;74;21098;-84
2023/09/08 07:49:46;;;;;;;12.15;6.30;;;22.60;99.90;;;;;;1932322;74;21184;-84
2023/09/08 07:52:37;;;;;;;7.28;6.00;;;22.70;99.90;;;;;;1932310;74;21137;-84
2023/09/08 07:55:29;;;;;;;9.60;5.15;;;22.80;99.90;;;;;;1932382;74;21205;-84
2023/09/08 07:58:20;;;;;;;9.83;5.42;;;22.90;99.90;;;;;;1932327;74;21649;-84
2023/09/08 08:01:13;;;;;;;8.93;5.58;;;22.90;99.90;;;;;;1932276;74;21063;-84
2023/09/08 08:04:05;;;;;;;6.37;5.72;;;23.00;99.90;;;;;;1932255;74;21079;-85
2023/09/08 08:06:57;;;;;;;6.55;5.72;;;23.10;99.90;;;;;;1932600;74;21103;-84
2023/09/08 08:09:48;;;;;;;8.38;6.03;;;23.10;99.90;;;;;;1932522;74;21122;-84
2023/09/08 08:12:40;;;;;;;7.10;5.35;;;23.10;99.90;;;;;;1932628;74;21111;-84
2023/09/08 08:15:38;;;;;;;8.53;5.55;;;23.10;99.90;;;;;;1932323;74;21142;-84
2023/09/08 08:18:29;;;;;;;7.80;5.42;;;23.30;99.90;;;;;;1932367;74;21562;-84
2023/09/08 08:21:22;;;;;;;7.92;5.15;;;23.40;99.90;;;;;;1932362;74;21188;-84
2023/09/08 08:24:14;;;;;;;8.45;5.60;;;23.40;99.90;;;;;;1931960;74;21111;-84
2023/09/08 08:27:07;;;;;;;7.72;5.55;;;23.60;99.90;;;;;;1931753;74;21067;-84
2023/09/08 08:30:00;;;;;;;7.15;5.50;;;23.70;99.90;;;;;;1931752;74;21146;-84
2023/09/08 08:32:53;;;;;;;9.23;5.47;;;23.80;99.90;;;;;;1931918;74;21199;-84
2023/09/08 08:35:51;;;;;;;9.20;5.83;;;23.90;99.90;;;;;;1932257;74;21123;-85
2023/09/08 08:38:44;;;;;;;8.98;5.30;;;23.90;99.90;;;;;;1932160;74;21118;-84
2023/09/08 08:41:39;;;;;;;9.50;5.55;;;23.90;99.90;;;;;;1932025;74;21095;-84
2023/09/08 08:44:30;;;;;;;6.55;5.45;;;24.00;99.90;;;;;;1931986;74;21438;-85
2023/09/08 08:47:21;;;;;;;5.83;4.87;;;23.90;99.90;;;;;;1932322;74;21106;-85
2023/09/08 08:50:13;;;;;;;7.67;5.53;;;24.00;99.90;;;;;;1932330;74;21122;-84
2023/09/08 08:53:05;;;;;;;5.28;4.75;;;24.10;99.90;;;;;;1932292;74;21216;-84
2023/09/08 08:55:59;;;;;;;7.10;5.15;;;24.20;99.90;;;;;;1932285;74;21172;-84
2023/09/08 08:58:51;;;;;;;6.37;5.08;;;24.20;99.90;;;;;;1932276;74;21095;-84
2023/09/08 09:01:44;;;;;;;6.05;5.25;;;24.30;99.90;;;;;;1932334;74;21580;-84
2023/09/08 09:04:37;;;;;;;6.12;5.17;;;24.30;99.90;;;;;;1932047;74;21148;-84
2023/09/08 09:07:29;;;;;;;6.62;5.25;;;24.40;99.90;;;;;;1932276;74;21131;-84
2023/09/08 09:10:21;;;;;;;7.03;5.15;;;24.50;99.90;;;;;;1932126;74;21128;-84
2023/09/08 09:13:13;;;;;;;5.33;4.83;;;24.60;99.90;;;;;;1932036;74;21655;-84
2023/09/08 09:16:07;;;;;;;5.30;4.53;;;24.70;99.90;;;;;;1932367;74;21094;-84
2023/09/08 09:19:01;;;;;;;5.33;4.83;;;24.70;99.90;;;;;;1932097;74;21106;-85
2023/09/08 09:21:54;;;;;;;5.95;4.78;;;24.70;99.90;;;;;;1932294;74;21113;-84
2023/09/08 09:24:46;;;;;;;5.25;4.75;;;24.80;99.90;;;;;;1932136;74;21102;-84
2023/09/08 09:27:40;;;;;;;5.85;4.80;;;24.90;99.90;;;;;;1932352;74;21055;-84
2023/09/08 09:30:48;;;;;;;4.55;4.17;;;25.10;99.90;;;;;;1932201;74;21547;-84
2023/09/08 09:33:40;;;;;;;5.80;5.20;;;25.10;99.90;;;;;;1932354;74;21098;-84
2023/09/08 09:36:31;;;;;;;5.90;4.92;;;25.20;99.90;;;;;;1932244;74;21110;-84
2023/09/08 09:39:24;;;;;;;7.80;4.92;;;25.20;99.90;;;;;;1932025;74;21055;-84
2023/09/08 09:42:15;;;;;;;7.03;4.92;;;25.30;99.90;;;;;;1932276;74;21126;-84
2023/09/08 09:45:10;;;;;;;5.30;4.80;;;25.30;99.90;;;;;;1932028;74;21082;-84
2023/09/08 09:48:03;;;;;;;7.12;4.58;;;25.40;99.90;;;;;;1931789;74;21139;-84
2023/09/08 09:50:54;;;;;;;5.45;4.60;;;25.50;99.90;;;;;;1931873;74;21685;-84
2023/09/08 09:53:47;;;;;;;6.25;4.80;;;25.60;99.90;;;;;;1931924;74;21164;-84
2023/09/08 09:56:41;;;;;;;6.15;5.08;;;25.60;99.90;;;;;;1932042;74;21594;-84
2023/09/08 09:59:34;;;;;;;5.90;4.95;;;25.70;99.90;;;;;;1932528;74;21236;-84
2023/09/08 10:02:30;;;;;;;6.65;4.83;;;25.80;99.90;;;;;;1932104;74;21167;-84
2023/09/08 10:05:22;;;;;;;4.75;4.30;;;25.90;99.90;;;;;;1932639;73;21662;-85
2023/09/08 10:08:16;;;;;;;6.80;4.25;;;26.00;99.90;;;;;;1966898;73;21163;-84
2023/09/08 10:11:10;;;;;;;6.35;4.87;;;26.10;99.90;;;;;;1966848;73;21094;-84
2023/09/08 10:14:02;;;;;;;6.22;4.75;;;26.10;99.90;;;;;;1966750;73;21069;-84
2023/09/08 10:16:56;;;;;;;4.53;4.03;;;26.20;99.90;;;;;;1966656;73;21687;-84
2023/09/08 10:19:51;;;;;;;7.72;4.80;;;26.30;99.90;;;;;;1966455;73;21116;-84
2023/09/08 10:22:43;;;;;;;5.37;4.53;;;26.40;99.90;;;;;;1952767;73;21102;-84
2023/09/08 10:25:38;;;;;;;7.08;4.40;;;26.40;99.90;;;;;;1949831;73;21159;-84
2023/09/08 10:28:31;;;;;;;5.47;4.30;;;26.50;99.90;;;;;;1949934;73;21135;-84
2023/09/08 10:31:23;;;;;;;5.00;4.50;;;26.70;99.90;;;;;;1949861;73;21565;-84
2023/09/08 10:34:16;;;;;;;5.60;4.60;;;26.80;99.90;;;;;;1951007;73;21161;-84
2023/09/08 10:37:21;;;;;;;4.20;3.75;;;26.80;99.90;;;;;;1965602;73;21050;-84
2023/09/08 10:40:27;;;;;;;4.80;3.30;;;26.90;99.90;;;;;;1965306;73;21549;-85
2023/09/08 10:43:20;;;;;;;5.05;3.70;;;26.90;99.90;;;;;;1965333;73;21100;-84
2023/09/08 10:46:13;;;;;;;5.75;3.50;;;27.00;99.90;;;;;;1965268;73;21097;-83
2023/09/08 10:49:07;;;;;;;4.45;2.95;;;27.20;99.90;;;;;;1965654;73;21191;-82
2023/09/08 10:52:11;;;;;;;4.08;2.95;;;27.20;99.90;;;;;;1965727;73;21537;-82
2023/09/08 10:55:06;;;;;;;6.17;2.90;;;27.30;99.90;;;;;;1965833;73;21175;-85
2023/09/08 10:57:58;;;;;;;5.03;2.77;;;27.40;99.90;;;;;;1965859;73;21549;-85
2023/09/08 11:00:56;;;;;;;4.40;3.10;;;27.50;99.90;;;;;;1965806;73;21101;-84
2023/09/08 11:03:49;;;;;;;4.00;2.95;;;27.70;99.90;;;;;;1966086;73;21051;-85
2023/09/08 11:06:42;;;;;;;2.98;2.27;;;27.80;99.90;;;;;;1965876;73;21122;-83
2023/09/08 11:09:38;;;;;;;3.67;2.42;;;28.00;99.90;;;;;;1965885;73;21207;-83
2023/09/08 11:12:30;;;;;;;3.05;2.60;;;28.10;99.90;;;;;;1965955;73;21101;-84
2023/09/08 11:15:22;;;;;;;2.40;2.20;;;28.20;99.90;;;;;;1966067;73;21098;-85
2023/09/08 11:18:13;;;;;;;2.70;2.45;;;28.30;99.90;;;;;;1965481;73;21131;-84
2023/09/08 11:21:07;;;;;;;2.72;2.52;;;28.40;99.90;;;;;;1965895;73;21138;-83
2023/09/08 11:23:59;;;;;;;3.25;2.47;;;28.40;99.90;;;;;;1956664;73;21078;-84
2023/09/08 11:26:51;;;;;;;2.50;2.30;;;28.40;99.80;;;;;;1956372;73;21151;-86
2023/09/08 11:29:42;;;;;;;5.50;2.52;;;28.50;99.40;;;;;;1956281;73;21102;-82
2023/09/08 11:32:35;;;;;;;4.30;2.60;;;28.60;98.80;;;;;;1956261;73;21058;-83
2023/09/08 11:35:29;;;;;;;2.90;2.50;;;28.60;98.40;;;;;;1956278;73;21138;-85
2023/09/08 11:38:26;;;;;;;3.42;2.90;;;28.50;98.80;;;;;;1956330;73;21175;-81
2023/09/08 11:41:23;;;;;;;2.83;2.60;;;28.60;98.10;;;;;;1956307;73;21139;-81
2023/09/08 11:44:13;;;;;;;3.47;2.50;;;28.50;98.30;;;;;;1956177;73;21155;-85
2023/09/08 11:47:06;;;;;;;3.37;2.80;;;28.60;98.50;;;;;;1956097;73;21171;-85
2023/09/08 11:49:58;;;;;;;3.67;2.50;;;28.70;98.50;;;;;;1956035;73;21059;-83
2023/09/08 11:52:51;;;;;;;4.80;2.30;;;28.90;98.50;;;;;;1956076;73;21101;-85
2023/09/08 11:55:42;;;;;;;3.70;2.50;;;28.80;98.80;;;;;;1956140;73;21098;-84
2023/09/08 11:58:34;;;;;;;4.30;2.62;;;28.90;99.00;;;;;;1956002;73;21627;-83
2023/09/08 12:01:27;;;;;;;3.27;2.35;;;28.90;98.60;;;;;;1955972;73;21106;-85
2023/09/08 12:04:22;;;;;;;3.45;2.72;;;29.00;99.10;;;;;;1955821;73;21079;-84
2023/09/08 12:07:16;;;;;;;2.70;2.50;;;29.10;99.10;;;;;;1956079;73;21070;-85
2023/09/08 12:10:11;;;;;;;4.78;2.55;;;29.20;98.70;;;;;;1956092;73;21105;-84
2023/09/08 12:13:04;;;;;;;3.25;2.47;;;29.20;98.90;;;;;;1956449;73;21546;-85
2023/09/08 12:15:56;;;;;;;3.83;2.50;;;29.20;98.80;;;;;;1956263;73;21196;-86
2023/09/08 12:18:48;;;;;;;4.62;2.77;;;29.30;98.10;;;;;;1956347;73;21216;-83
2023/09/08 12:21:56;;;;;;;3.90;2.58;;;29.30;98.80;;;;;;1956328;73;21094;-83
2023/09/08 12:24:53;;;;;;;2.90;2.52;;;29.40;98.40;;;;;;1956399;73;21078;-84
2023/09/08 12:27:45;;;;;;;3.60;2.60;;;29.40;97.60;;;;;;1956605;73;21167;-82
2023/09/08 12:30:37;;;;;;;4.97;2.47;;;29.40;95.80;;;;;;1956258;73;21351;-85
2023/09/08 12:33:29;;;;;;;4.10;2.35;;;29.40;95.80;;;;;;1956070;73;21050;-85
2023/09/08 12:36:21;;;;;;;2.85;2.55;;;29.60;96.00;;;;;;1956320;73;21091;-85
2023/09/08 12:39:12;;;;;;;3.92;2.75;;;29.60;95.70;;;;;;1956029;73;21648;-84
2023/09/08 12:42:05;;;;;;;3.50;2.47;;;29.70;95.30;;;;;;1955950;73;21109;-81
2023/09/08 12:44:56;;;;;;;3.10;2.80;;;29.60;95.20;;;;;;1955981;73;21144;-80
2023/09/08 12:47:48;;;;;;;4.42;2.47;;;29.70;94.30;;;;;;1955901;73;21128;-85
2023/09/08 12:50:39;;;;;;;2.25;2.10;;;29.70;94.40;;;;;;1956169;73;21043;-82
2023/09/08 12:53:34;;;;;;;2.80;2.60;;;29.80;93.30;;;;;;1955989;73;21122;-85
2023/09/08 12:56:25;;;;;;;2.47;2.27;;;29.90;92.00;;;;;;1956241;73;21105;-82
2023/09/08 12:59:16;;;;;;;3.67;2.50;;;29.80;92.50;;;;;;1956261;73;21163;-84
2023/09/08 13:02:08;;;;;;;4.25;2.60;;;29.80;91.80;;;;;;1956124;73;21195;-85
2023/09/08 13:05:00;;;;;;;3.90;2.35;;;29.80;92.20;;;;;;1955370;73;21113;-85
2023/09/08 13:07:52;;;;;;;3.25;2.37;;;29.90;92.80;;;;;;1903691;75;21365;-83
2023/09/08 13:10:43;;;;;;;3.75;2.42;;;30.00;92.40;;;;;;1903822;75;21067;-85
2023/09/08 13:13:34;;;;;;;4.42;2.40;;;30.00;92.50;;;;;;1903659;75;21216;-84
2023/09/08 13:16:26;;;;;;;3.02;2.47;;;30.00;91.80;;;;;;1903890;75;21176;-85
2023/09/08 13:19:18;;;;;;;2.95;2.55;;;30.00;92.00;;;;;;1916167;75;21639;-85
2023/09/08 13:22:10;;;;;;;3.87;2.58;;;30.00;92.10;;;;;;1903914;75;21610;-84
2023/09/08 13:25:01;;;;;;;2.80;2.60;;;30.20;92.60;;;;;;1916229;74;21118;-84
2023/09/08 13:27:53;;;;;;;4.50;2.80;;;30.10;92.70;;;;;;1915611;75;21391;-84
2023/09/08 13:30:44;;;;;;;3.35;2.75;;;30.10;93.00;;;;;;1915447;75;21171;-83
2023/09/08 13:33:37;;;;;;;2.80;2.50;;;30.10;92.60;;;;;;1915692;75;21159;-85
2023/09/08 13:36:31;;;;;;;2.90;2.17;;;30.20;91.40;;;;;;1915911;75;21062;-85
2023/09/08 13:39:23;;;;;;;3.70;2.87;;;30.30;91.60;;;;;;1916017;75;21054;-85
2023/09/08 13:42:15;;;;;;;4.78;2.70;;;30.30;92.40;;;;;;1916085;75;21102;-84
2023/09/08 13:45:08;;;;;;;3.33;2.70;;;30.30;93.00;;;;;;1916302;75;21097;-83
2023/09/08 13:48:00;;;;;;;3.45;2.80;;;30.40;93.80;;;;;;1916148;75;21110;-85
2023/09/08 13:50:53;;;;;;;3.10;2.75;;;30.40;93.50;;;;;;1916214;75;21190;-82
2023/09/08 13:53:45;;;;;;;3.15;2.62;;;30.40;93.10;;;;;;1915770;75;21216;-85
2023/09/08 13:56:42;;;;;;;5.00;2.75;;;30.50;93.00;;;;;;1915744;75;21120;-83
2023/09/08 13:59:35;;;;;;;3.77;2.87;;;30.50;93.50;;;;;;1915946;75;21121;-84
2023/09/08 14:02:27;;;;;;;3.47;2.80;;;30.60;93.40;;;;;;1915839;75;21554;-82
2023/09/08 14:05:21;;;;;;;2.77;2.58;;;30.70;93.10;;;;;;1915731;75;21188;-83
2023/09/08 14:08:13;;;;;;;4.37;2.83;;;30.70;93.30;;;;;;1915528;75;21071;-83
2023/09/08 14:11:07;;;;;;;5.87;2.98;;;31.20;92.70;;;;;;1916049;75;21235;-81
2023/09/08 14:13:59;;;;;;;4.75;3.10;;;31.80;91.90;;;;;;1915732;75;21067;-82
2023/09/08 14:16:52;;;;;;;3.65;2.80;;;32.30;91.50;;;;;;1915989;75;21103;-83
2023/09/08 14:19:43;;;;;;;2.60;2.40;;;32.40;90.80;;;;;;1915948;75;21160;-85
2023/09/08 14:22:34;;;;;;;3.95;2.77;;;32.80;90.90;;;;;;1916045;75;21054;-83
2023/09/08 14:25:26;;;;;;;3.75;2.65;;;33.30;90.00;;;;;;1922982;74;21106;-82
2023/09/08 14:28:17;;;;;;;5.58;3.15;;;33.20;89.20;;;;;;1932221;74;21098;-83
2023/09/08 14:31:09;;;;;;;3.22;2.75;;;33.30;88.00;;;;;;1932124;74;21050;-85
2023/09/08 14:34:00;;;;;;;3.22;2.80;;;33.40;87.70;;;;;;1932088;74;21602;-81
2023/09/08 14:36:51;;;;;;;3.17;2.85;;;33.50;87.40;;;;;;1932312;74;21546;-84
2023/09/08 14:39:43;;;;;;;2.87;2.50;;;33.70;87.10;;;;;;1932291;74;21163;-85
2023/09/08 14:42:35;;;;;;;3.05;2.62;;;33.90;85.80;;;;;;1932150;74;21164;-84
2023/09/08 14:45:27;;;;;;;2.80;2.50;;;33.90;85.20;;;;;;1932220;74;21090;-85
2023/09/08 14:48:18;;;;;;;4.20;2.92;;;33.70;84.70;;;;;;1932507;74;21180;-82
2023/09/08 14:51:11;;;;;;;3.30;3.00;;;33.80;84.40;;;;;;1932235;74;21587;-85
2023/09/08 14:54:03;;;;;;;6.53;3.20;;;34.30;84.60;;;;;;1932242;74;21197;-86
2023/09/08 14:56:55;;;;;;;5.10;3.20;;;34.40;82.90;;;;;;1932129;74;21665;-83